Irini — SV4194 — position and weather

sailwx.info

Track history (hours):
 
Tides and Currents Weather Stations Pressure Air Temp Water Temp Dewpoint Dewpoint Depression Visibility Wind Speed Wind Dir Waves Ship Positions

Irini

Last reported at 2018-Jun-22 17:48 UTC. Time now 2018-Jun-22 23:00 UTC.
Position N 37°39' E 023°51'.

Length 63 m; draft 4 m.

Type: Cargo ship. MMSI: 237087500.

Date/timePositionNaut miles runAvg speedWind from/ knotsBaromVisibWave heightAir tempDewpointWater temp
2018-Jun-22 17:48N 37°39' E 023°51'2 8.0
2018-Jun-22 17:30N 37°39' E 023°48'4 7.8
2018-Jun-22 17:00N 37°39' E 023°43'4 7.3
2018-Jun-22 16:30N 37°43' E 023°41'4 7.2
2018-Jun-22 16:00N 37°46' E 023°39'4 7.0
2018-Jun-22 15:30N 37°49' E 023°37'3 7.1
2018-Jun-22 15:00N 37°52' E 023°36'4 7.2
2018-Jun-22 14:30N 37°56' E 023°36'2 3.0
2018-Jun-22 14:00N 37°58' E 023°37'0 0.0
2018-Jun-22 13:30N 37°58' E 023°37'0 0.0
2018-Jun-22 13:00N 37°58' E 023°37'0 0.0
2018-Jun-22 12:30N 37°58' E 023°37'0 0.0
2018-Jun-22 12:00N 37°58' E 023°37'0 0.0
2018-Jun-22 11:30N 37°58' E 023°37'0 0.0
2018-Jun-22 11:00N 37°58' E 023°37'0 0.0
2018-Jun-22 10:30N 37°58' E 023°37'0 0.0
2018-Jun-22 10:00N 37°58' E 023°37'0 0.0
2018-Jun-22 09:30N 37°58' E 023°37'0 0.0
2018-Jun-22 09:00N 37°58' E 023°37'0 0.0
2018-Jun-22 08:30N 37°58' E 023°37'0 0.0
2018-Jun-22 08:00N 37°58' E 023°37'0 0.0
2018-Jun-22 07:30N 37°58' E 023°37'0 0.0
2018-Jun-22 07:00N 37°58' E 023°37'0 0.0
2018-Jun-22 06:30N 37°58' E 023°37'0 0.0
2018-Jun-22 06:00N 37°58' E 023°37'0 0.0
2018-Jun-22 05:30N 37°58' E 023°37'0 0.0
2018-Jun-22 05:00N 37°58' E 023°37'0 0.0
2018-Jun-22 04:30N 37°58' E 023°37'0 0.0
2018-Jun-22 04:00N 37°58' E 023°37'0 0.0
2018-Jun-22 03:30N 37°58' E 023°37'0 0.0
2018-Jun-22 03:00N 37°58' E 023°37'0 0.0
2018-Jun-22 02:30N 37°58' E 023°37'0 0.0
2018-Jun-22 02:00N 37°58' E 023°37'0 0.0
2018-Jun-22 01:30N 37°58' E 023°37'0 0.0
2018-Jun-22 01:00N 37°58' E 023°37'0 0.0
2018-Jun-22 00:30N 37°58' E 023°37'0 0.0
2018-Jun-22 00:00N 37°58' E 023°37'0 0.0
2018-Jun-21 23:30N 37°58' E 023°37'0 0.0
2018-Jun-21 23:00N 37°58' E 023°37'0 0.0
2018-Jun-21 22:30N 37°58' E 023°37'0 0.0
2018-Jun-21 22:00N 37°58' E 023°37'0 0.0
2018-Jun-21 21:30N 37°58' E 023°37'0 0.0
2018-Jun-21 21:00N 37°58' E 023°37'0 0.0
2018-Jun-21 20:30N 37°58' E 023°37'0 0.0
2018-Jun-21 20:00N 37°58' E 023°37'0 0.0
2018-Jun-21 19:30N 37°58' E 023°37'0 0.0
2018-Jun-21 19:00N 37°58' E 023°37'0 0.0
2018-Jun-21 18:30N 37°58' E 023°37'0 0.0
2018-Jun-21 18:00N 37°58' E 023°37'0 0.0
2018-Jun-21 17:30N 37°58' E 023°37'0 0.0
2018-Jun-21 17:00N 37°58' E 023°37'0 0.0
2018-Jun-21 16:30N 37°58' E 023°37'0 0.0
2018-Jun-21 16:00N 37°58' E 023°37'0 0.0
2018-Jun-21 15:30N 37°58' E 023°37'0 0.0
2018-Jun-21 15:00N 37°58' E 023°37'0 0.0
2018-Jun-21 14:30N 37°58' E 023°37'0 0.0
2018-Jun-21 14:00N 37°58' E 023°37'0 0.0
2018-Jun-21 13:30N 37°58' E 023°37'0 0.0
2018-Jun-21 13:00N 37°58' E 023°37'0 0.0
2018-Jun-21 12:30N 37°58' E 023°37'0 0.0
2018-Jun-21 12:00N 37°58' E 023°37'0 0.0
2018-Jun-21 11:30N 37°58' E 023°37'0 0.0
2018-Jun-21 11:00N 37°58' E 023°37'0 0.0
2018-Jun-21 10:30N 37°58' E 023°37'0 0.0
2018-Jun-21 10:00N 37°58' E 023°37'0 0.0
2018-Jun-21 09:30N 37°58' E 023°37'0 0.0
2018-Jun-21 09:00N 37°58' E 023°37'0 0.0
2018-Jun-21 08:30N 37°58' E 023°37'0 0.0
2018-Jun-21 07:59N 37°58' E 023°37'0 0.0
2018-Jun-21 07:30N 37°58' E 023°37'0 0.0
2018-Jun-21 07:00N 37°58' E 023°37'0 0.0
2018-Jun-21 06:30N 37°58' E 023°37'0 0.0
2018-Jun-21 06:00N 37°58' E 023°37'0 0.0
2018-Jun-21 05:30N 37°58' E 023°37'0 0.0
2018-Jun-21 05:00N 37°58' E 023°37'0 0.0
2018-Jun-21 04:30N 37°58' E 023°37'0 0.0
2018-Jun-21 04:00N 37°58' E 023°37'0 0.0
2018-Jun-21 03:30N 37°58' E 023°37'0 0.0
2018-Jun-21 03:00N 37°58' E 023°37'0 0.0
2018-Jun-21 02:30N 37°58' E 023°37'2 3.7
2018-Jun-21 02:00N 37°56' E 023°36'4 7.3
2018-Jun-21 01:30N 37°52' E 023°39'4 7.4
2018-Jun-21 01:00N 37°49' E 023°41'4 7.5
2018-Jun-21 00:30N 37°46' E 023°43'4 7.2
2018-Jun-21 00:00N 37°43' E 023°45'119 6.2
2018-Jun-20 04:38N 39°32' E 024°46'2 7.0
2018-Jun-20 04:24N 39°34' E 024°46'3 7.0
2018-Jun-20 04:00N 39°36' E 024°46'4 7.1
2018-Jun-20 03:30N 39°40' E 024°46'6 6.9
2018-Jun-20 02:42N 39°46' E 024°46'1 6.8
2018-Jun-20 02:30N 39°47' E 024°47'3 6.7
2018-Jun-20 02:00N 39°50' E 024°47'4 5.9
2018-Jun-20 01:22N 39°54' E 024°48'2 5.3
2018-Jun-20 01:00N 39°56' E 024°48'3 5.3
2018-Jun-20 00:29N 39°59' E 024°48'3 5.8
2018-Jun-20 00:00N 40°01' E 024°49'3 6.4
2018-Jun-19 23:30N 40°05' E 024°49'3 6.6
2018-Jun-19 22:59N 40°08' E 024°49'4 6.8
2018-Jun-19 22:26N 40°12' E 024°49'3 6.7
2018-Jun-19 21:57N 40°15' E 024°49'3 6.7
2018-Jun-19 21:30N 40°18' E 024°49'4 7.1
2018-Jun-19 21:00N 40°22' E 024°49'4 7.8
2018-Jun-19 20:30N 40°25' E 024°49'4 8.1
2018-Jun-19 20:00N 40°29' E 024°49'4 8.1
2018-Jun-19 19:27N 40°34' E 024°49'4 8.0
2018-Jun-19 19:00N 40°38' E 024°50'4 7.8
2018-Jun-19 18:30N 40°41' E 024°49'4 7.8
2018-Jun-19 18:00N 40°45' E 024°48'3 6.9
2018-Jun-19 17:30N 40°47' E 024°44'3 6.7
2018-Jun-19 17:00N 40°50' E 024°41'1 2.9
2018-Jun-19 16:30N 40°51' E 024°42'0 0.1
2018-Jun-19 16:00N 40°51' E 024°42'0 0.0
2018-Jun-19 15:30N 40°51' E 024°42'0 0.0
2018-Jun-19 15:00N 40°51' E 024°42'0 0.0
2018-Jun-19 14:30N 40°51' E 024°42'0 0.0
2018-Jun-19 14:00N 40°51' E 024°42'0 0.0
2018-Jun-19 13:30N 40°51' E 024°42'0 0.0
2018-Jun-19 13:00N 40°51' E 024°42'0 0.0
2018-Jun-19 12:30N 40°51' E 024°42'0 0.0
2018-Jun-19 12:00N 40°51' E 024°42'0 0.0
2018-Jun-19 11:30N 40°51' E 024°42'0 0.0
2018-Jun-19 11:00N 40°51' E 024°42'0 0.0
2018-Jun-19 10:30N 40°51' E 024°42'0 0.0
2018-Jun-19 10:00N 40°51' E 024°42'0 0.0
2018-Jun-19 09:30N 40°51' E 024°42'0 0.0
2018-Jun-19 09:00N 40°51' E 024°42'0 0.0
2018-Jun-19 08:30N 40°51' E 024°42'0 0.0
2018-Jun-19 08:00N 40°51' E 024°42'0 0.0
2018-Jun-19 07:30N 40°51' E 024°42'0 0.0
2018-Jun-19 07:00N 40°51' E 024°42'0 0.0
2018-Jun-19 06:30N 40°51' E 024°42'0 0.0
2018-Jun-19 06:00N 40°51' E 024°42'0 0.0
2018-Jun-19 05:30N 40°51' E 024°42'0 0.0
2018-Jun-19 05:00N 40°51' E 024°42'0 0.0
2018-Jun-19 04:30N 40°51' E 024°42'0 0.0
2018-Jun-19 04:00N 40°51' E 024°42'0 0.0
2018-Jun-19 03:30N 40°51' E 024°42'0 0.0
2018-Jun-19 03:00N 40°51' E 024°42'0 0.0
2018-Jun-19 02:30N 40°51' E 024°42'0 0.0
2018-Jun-19 02:00N 40°51' E 024°42'0 0.0
2018-Jun-19 01:30N 40°51' E 024°42'0 0.0
2018-Jun-19 01:00N 40°51' E 024°42'0 0.0
2018-Jun-19 00:30N 40°51' E 024°42'0 0.0
2018-Jun-19 00:00N 40°51' E 024°42'0 0.0
2018-Jun-18 23:30N 40°51' E 024°42'0 0.0
2018-Jun-18 23:00N 40°51' E 024°42'0 0.0
2018-Jun-18 22:30N 40°51' E 024°42'0 0.0
2018-Jun-18 22:00N 40°51' E 024°42'0 0.0
2018-Jun-18 21:30N 40°51' E 024°42'0 0.0
2018-Jun-18 21:00N 40°51' E 024°42'0 0.0
2018-Jun-18 20:30N 40°51' E 024°42'0 0.0
2018-Jun-18 20:00N 40°51' E 024°42'1 1.7
2018-Jun-18 19:30N 40°52' E 024°41'4 7.8
2018-Jun-18 19:00N 40°48' E 024°43'4 8.5
2018-Jun-18 18:30N 40°46' E 024°48'4 7.5
2018-Jun-18 18:00N 40°42' E 024°50'11 6.9
2018-Jun-18 16:21N 40°31' E 024°48'3 6.8
2018-Jun-18 15:52N 40°28' E 024°49'2 6.6
2018-Jun-18 15:30N 40°25' E 024°49'4 7.0
2018-Jun-18 14:59N 40°22' E 024°49'4 7.6
2018-Jun-18 14:27N 40°18' E 024°49'10 8.3
2018-Jun-18 13:16N 40°08' E 024°48'152 3.9
2018-Jun-16 22:16N 37°36' E 024°60'2 8.2
2018-Jun-16 22:00N 37°35' E 025°02'4 8.2
2018-Jun-16 21:30N 37°32' E 025°06'4 8.0
2018-Jun-16 21:00N 37°30' E 025°10'4 7.9
2018-Jun-16 20:31N 37°27' E 025°13'5 0.4
2018-Jun-16 08:36N 37°28' E 025°19'0 1.3
2018-Jun-16 08:31N 37°28' E 025°20'0 0.0
2018-Jun-16 08:00N 37°28' E 025°20'0 0.0
2018-Jun-16 07:30N 37°28' E 025°20'0 0.0
2018-Jun-16 07:01N 37°28' E 025°20'0 0.0
2018-Jun-16 06:31N 37°28' E 025°20'0 0.0
2018-Jun-16 06:00N 37°28' E 025°20'0 0.0
2018-Jun-16 05:31N 37°28' E 025°20'0 0.0
2018-Jun-16 05:00N 37°28' E 025°20'0 0.0
2018-Jun-16 04:31N 37°28' E 025°20'0 0.0
2018-Jun-16 04:01N 37°28' E 025°20'0 0.0
2018-Jun-16 03:31N 37°28' E 025°20'0 0.0
2018-Jun-16 03:01N 37°28' E 025°20'0 0.0
2018-Jun-16 02:30N 37°28' E 025°20'0 0.0
2018-Jun-16 02:01N 37°28' E 025°20'0 0.0
2018-Jun-16 01:31N 37°28' E 025°20'0 0.0
2018-Jun-16 01:01N 37°28' E 025°20'0 0.0
2018-Jun-16 00:31N 37°28' E 025°20'0 0.0
2018-Jun-16 00:01N 37°28' E 025°20'0 0.0
2018-Jun-15 23:30N 37°28' E 025°20'0 0.0
2018-Jun-15 23:01N 37°28' E 025°20'0 0.0
2018-Jun-15 22:30N 37°28' E 025°20'0 0.0
2018-Jun-15 22:00N 37°28' E 025°20'0 0.0
2018-Jun-15 21:30N 37°28' E 025°20'0 0.0
2018-Jun-15 21:00N 37°28' E 025°20'0 0.0
2018-Jun-15 20:31N 37°28' E 025°20'0 0.0
2018-Jun-15 20:01N 37°28' E 025°20'0 0.0
2018-Jun-15 19:31N 37°28' E 025°20'0 0.0
2018-Jun-15 19:01N 37°28' E 025°20'0 0.0
2018-Jun-15 18:31N 37°28' E 025°20'0 0.0
2018-Jun-15 18:00N 37°28' E 025°20'0 0.0
2018-Jun-15 17:31N 37°28' E 025°20'0 0.0
2018-Jun-15 17:01N 37°28' E 025°20'0 0.0
2018-Jun-15 16:30N 37°28' E 025°20'0 0.0
2018-Jun-15 16:00N 37°28' E 025°20'0 0.0
2018-Jun-15 15:31N 37°28' E 025°20'0 0.0
2018-Jun-15 15:00N 37°28' E 025°20'0 0.0
2018-Jun-15 14:30N 37°28' E 025°20'0 0.0
2018-Jun-15 14:00N 37°28' E 025°20'0 0.0
2018-Jun-15 13:31N 37°28' E 025°20'0 0.0
2018-Jun-15 13:00N 37°28' E 025°20'0 0.0
2018-Jun-15 12:20N 37°28' E 025°20'0 0.0
2018-Jun-15 12:00N 37°28' E 025°20'0 0.0
2018-Jun-15 11:30N 37°28' E 025°20'0 0.0
2018-Jun-15 11:00N 37°28' E 025°20'0 0.0
2018-Jun-15 10:30N 37°28' E 025°20'0 0.0
2018-Jun-15 10:00N 37°28' E 025°20'0 0.0
2018-Jun-15 09:31N 37°28' E 025°20'0 0.0
2018-Jun-15 09:01N 37°28' E 025°20'0 0.0
2018-Jun-15 08:31N 37°28' E 025°20'0 0.0
2018-Jun-15 08:00N 37°28' E 025°20'0 0.0
2018-Jun-15 07:31N 37°28' E 025°20'0 0.0
2018-Jun-15 07:01N 37°28' E 025°20'0 0.0
2018-Jun-15 06:30N 37°28' E 025°20'0 0.0
2018-Jun-15 06:01N 37°28' E 025°20'0 0.0
2018-Jun-15 05:30N 37°28' E 025°20'0 0.0
2018-Jun-15 05:01N 37°28' E 025°20'0 0.0
2018-Jun-15 04:31N 37°28' E 025°20'0 0.0
2018-Jun-15 04:01N 37°28' E 025°20'0 0.0
2018-Jun-15 03:31N 37°28' E 025°20'0 0.0
2018-Jun-15 03:00N 37°28' E 025°20'0 0.0
2018-Jun-15 02:30N 37°28' E 025°20'0 0.0
2018-Jun-15 02:01N 37°28' E 025°20'0 0.0
2018-Jun-15 01:30N 37°28' E 025°20'0 0.0
2018-Jun-15 01:01N 37°28' E 025°20'0 0.0
2018-Jun-15 00:30N 37°28' E 025°20'0 0.0
2018-Jun-15 00:01N 37°28' E 025°20'0 0.0
2018-Jun-14 23:31N 37°28' E 025°20'0 0.0
2018-Jun-14 23:00N 37°28' E 025°20'0 0.0
2018-Jun-14 22:30N 37°28' E 025°20'0 0.0
2018-Jun-14 22:01N 37°28' E 025°20'0 0.0
2018-Jun-14 21:31N 37°28' E 025°20'0 0.0
2018-Jun-14 21:01N 37°28' E 025°20'0 0.0
2018-Jun-14 20:31N 37°28' E 025°20'0 0.0
2018-Jun-14 20:01N 37°28' E 025°20'0 0.0
2018-Jun-14 19:30N 37°28' E 025°20'0 0.0
2018-Jun-14 18:56N 37°28' E 025°20'0 0.0
2018-Jun-14 18:30N 37°28' E 025°20'0 0.0
2018-Jun-14 18:00N 37°28' E 025°20'0 0.0
2018-Jun-14 17:31N 37°28' E 025°20'0 0.0
2018-Jun-14 17:00N 37°28' E 025°20'0 0.0
2018-Jun-14 16:31N 37°28' E 025°20'0 0.0
2018-Jun-14 16:00N 37°28' E 025°20'0 0.0
2018-Jun-14 15:31N 37°28' E 025°20'0 0.0
2018-Jun-14 15:01N 37°28' E 025°20'0 0.0
2018-Jun-14 14:31N 37°28' E 025°20'0 0.5
2018-Jun-14 14:01N 37°28' E 025°19'1 2.1
2018-Jun-14 13:31N 37°26' E 025°19'0 0.0
2018-Jun-14 12:57N 37°26' E 025°19'0 0.0
2018-Jun-14 12:31N 37°26' E 025°19'0 0.0
2018-Jun-14 12:01N 37°26' E 025°19'0 0.0
2018-Jun-14 11:30N 37°26' E 025°19'0 0.0
2018-Jun-14 11:00N 37°26' E 025°19'0 0.0
2018-Jun-14 10:30N 37°26' E 025°19'0 0.1
2018-Jun-14 10:00N 37°26' E 025°19'0 0.0
2018-Jun-14 09:31N 37°26' E 025°19'0 0.0
2018-Jun-14 09:01N 37°26' E 025°19'0 0.0
2018-Jun-14 08:30N 37°26' E 025°19'0 0.1
2018-Jun-14 08:00N 37°26' E 025°19'0 0.0
2018-Jun-14 07:30N 37°26' E 025°19'0 0.0
2018-Jun-14 07:01N 37°26' E 025°19'0 0.1
2018-Jun-14 06:31N 37°26' E 025°19'1 2.1
2018-Jun-14 06:01N 37°27' E 025°18'4 7.2
2018-Jun-14 05:31N 37°29' E 025°14'4 7.5
2018-Jun-14 05:00N 37°30' E 025°10'4 7.6
2018-Jun-14 04:31N 37°32' E 025°06'78 2.3
2018-Jun-12 18:46N 38°22' E 023°49'  
Track history (hours):
 
Tides and Currents Weather Stations Pressure Air Temp Water Temp Dewpoint Dewpoint Depression Visibility Wind Speed Wind Dir Waves Ship Positions

Irini

Last reported at 2018-Jun-22 17:48 UTC. Time now 2018-Jun-22 23:00 UTC.
Position N 37°39' E 023°51'.

Length 63 m; draft 4 m.

Type: Cargo ship. MMSI: 237087500.

Date/timePositionNaut miles runAvg speedWind from/ knotsBaromVisibWave heightAir tempDewpointWater temp
2018-Jun-22 17:48N 37°39' E 023°51'2 8.0
2018-Jun-22 17:30N 37°39' E 023°48'4 7.8
2018-Jun-22 17:00N 37°39' E 023°43'4 7.3
2018-Jun-22 16:30N 37°43' E 023°41'4 7.2
2018-Jun-22 16:00N 37°46' E 023°39'4 7.0
2018-Jun-22 15:30N 37°49' E 023°37'3 7.1
2018-Jun-22 15:00N 37°52' E 023°36'4 7.2
2018-Jun-22 14:30N 37°56' E 023°36'2 3.0
2018-Jun-22 14:00N 37°58' E 023°37'0 0.0
2018-Jun-22 13:30N 37°58' E 023°37'0 0.0
2018-Jun-22 13:00N 37°58' E 023°37'0 0.0
2018-Jun-22 12:30N 37°58' E 023°37'0 0.0
2018-Jun-22 12:00N 37°58' E 023°37'0 0.0
2018-Jun-22 11:30N 37°58' E 023°37'0 0.0
2018-Jun-22 11:00N 37°58' E 023°37'0 0.0
2018-Jun-22 10:30N 37°58' E 023°37'0 0.0
2018-Jun-22 10:00N 37°58' E 023°37'0 0.0
2018-Jun-22 09:30N 37°58' E 023°37'0 0.0
2018-Jun-22 09:00N 37°58' E 023°37'0 0.0
2018-Jun-22 08:30N 37°58' E 023°37'0 0.0
2018-Jun-22 08:00N 37°58' E 023°37'0 0.0
2018-Jun-22 07:30N 37°58' E 023°37'0 0.0
2018-Jun-22 07:00N 37°58' E 023°37'0 0.0
2018-Jun-22 06:30N 37°58' E 023°37'0 0.0
2018-Jun-22 06:00N 37°58' E 023°37'0 0.0
2018-Jun-22 05:30N 37°58' E 023°37'0 0.0
2018-Jun-22 05:00N 37°58' E 023°37'0 0.0
2018-Jun-22 04:30N 37°58' E 023°37'0 0.0
2018-Jun-22 04:00N 37°58' E 023°37'0 0.0
2018-Jun-22 03:30N 37°58' E 023°37'0 0.0
2018-Jun-22 03:00N 37°58' E 023°37'0 0.0
2018-Jun-22 02:30N 37°58' E 023°37'0 0.0
2018-Jun-22 02:00N 37°58' E 023°37'0 0.0
2018-Jun-22 01:30N 37°58' E 023°37'0 0.0
2018-Jun-22 01:00N 37°58' E 023°37'0 0.0
2018-Jun-22 00:30N 37°58' E 023°37'0 0.0
2018-Jun-22 00:00N 37°58' E 023°37'0 0.0
2018-Jun-21 23:30N 37°58' E 023°37'0 0.0
2018-Jun-21 23:00N 37°58' E 023°37'0 0.0
2018-Jun-21 22:30N 37°58' E 023°37'0 0.0
2018-Jun-21 22:00N 37°58' E 023°37'0 0.0
2018-Jun-21 21:30N 37°58' E 023°37'0 0.0
2018-Jun-21 21:00N 37°58' E 023°37'0 0.0
2018-Jun-21 20:30N 37°58' E 023°37'0 0.0
2018-Jun-21 20:00N 37°58' E 023°37'0 0.0
2018-Jun-21 19:30N 37°58' E 023°37'0 0.0
2018-Jun-21 19:00N 37°58' E 023°37'0 0.0
2018-Jun-21 18:30N 37°58' E 023°37'0 0.0
2018-Jun-21 18:00N 37°58' E 023°37'0 0.0
2018-Jun-21 17:30N 37°58' E 023°37'0 0.0
2018-Jun-21 17:00N 37°58' E 023°37'0 0.0
2018-Jun-21 16:30N 37°58' E 023°37'0 0.0
2018-Jun-21 16:00N 37°58' E 023°37'0 0.0
2018-Jun-21 15:30N 37°58' E 023°37'0 0.0
2018-Jun-21 15:00N 37°58' E 023°37'0 0.0
2018-Jun-21 14:30N 37°58' E 023°37'0 0.0
2018-Jun-21 14:00N 37°58' E 023°37'0 0.0
2018-Jun-21 13:30N 37°58' E 023°37'0 0.0
2018-Jun-21 13:00N 37°58' E 023°37'0 0.0
2018-Jun-21 12:30N 37°58' E 023°37'0 0.0
2018-Jun-21 12:00N 37°58' E 023°37'0 0.0
2018-Jun-21 11:30N 37°58' E 023°37'0 0.0
2018-Jun-21 11:00N 37°58' E 023°37'0 0.0
2018-Jun-21 10:30N 37°58' E 023°37'0 0.0
2018-Jun-21 10:00N 37°58' E 023°37'0 0.0
2018-Jun-21 09:30N 37°58' E 023°37'0 0.0
2018-Jun-21 09:00N 37°58' E 023°37'0 0.0
2018-Jun-21 08:30N 37°58' E 023°37'0 0.0
2018-Jun-21 07:59N 37°58' E 023°37'0 0.0
2018-Jun-21 07:30N 37°58' E 023°37'0 0.0
2018-Jun-21 07:00N 37°58' E 023°37'0 0.0
2018-Jun-21 06:30N 37°58' E 023°37'0 0.0
2018-Jun-21 06:00N 37°58' E 023°37'0 0.0
2018-Jun-21 05:30N 37°58' E 023°37'0 0.0
2018-Jun-21 05:00N 37°58' E 023°37'0 0.0
2018-Jun-21 04:30N 37°58' E 023°37'0 0.0
2018-Jun-21 04:00N 37°58' E 023°37'0 0.0
2018-Jun-21 03:30N 37°58' E 023°37'0 0.0
2018-Jun-21 03:00N 37°58' E 023°37'0 0.0
2018-Jun-21 02:30N 37°58' E 023°37'2 3.7
2018-Jun-21 02:00N 37°56' E 023°36'4 7.3
2018-Jun-21 01:30N 37°52' E 023°39'4 7.4
2018-Jun-21 01:00N 37°49' E 023°41'4 7.5
2018-Jun-21 00:30N 37°46' E 023°43'4 7.2
2018-Jun-21 00:00N 37°43' E 023°45'119 6.2
2018-Jun-20 04:38N 39°32' E 024°46'2 7.0
2018-Jun-20 04:24N 39°34' E 024°46'3 7.0
2018-Jun-20 04:00N 39°36' E 024°46'4 7.1
2018-Jun-20 03:30N 39°40' E 024°46'6 6.9
2018-Jun-20 02:42N 39°46' E 024°46'1 6.8
2018-Jun-20 02:30N 39°47' E 024°47'3 6.7
2018-Jun-20 02:00N 39°50' E 024°47'4 5.9
2018-Jun-20 01:22N 39°54' E 024°48'2 5.3
2018-Jun-20 01:00N 39°56' E 024°48'3 5.3
2018-Jun-20 00:29N 39°59' E 024°48'3 5.8
2018-Jun-20 00:00N 40°01' E 024°49'3 6.4
2018-Jun-19 23:30N 40°05' E 024°49'3 6.6
2018-Jun-19 22:59N 40°08' E 024°49'4 6.8
2018-Jun-19 22:26N 40°12' E 024°49'3 6.7
2018-Jun-19 21:57N 40°15' E 024°49'3 6.7
2018-Jun-19 21:30N 40°18' E 024°49'4 7.1
2018-Jun-19 21:00N 40°22' E 024°49'4 7.8
2018-Jun-19 20:30N 40°25' E 024°49'4 8.1
2018-Jun-19 20:00N 40°29' E 024°49'4 8.1
2018-Jun-19 19:27N 40°34' E 024°49'4 8.0
2018-Jun-19 19:00N 40°38' E 024°50'4 7.8
2018-Jun-19 18:30N 40°41' E 024°49'4 7.8
2018-Jun-19 18:00N 40°45' E 024°48'3 6.9
2018-Jun-19 17:30N 40°47' E 024°44'3 6.7
2018-Jun-19 17:00N 40°50' E 024°41'1 2.9
2018-Jun-19 16:30N 40°51' E 024°42'0 0.1
2018-Jun-19 16:00N 40°51' E 024°42'0 0.0
2018-Jun-19 15:30N 40°51' E 024°42'0 0.0
2018-Jun-19 15:00N 40°51' E 024°42'0 0.0
2018-Jun-19 14:30N 40°51' E 024°42'0 0.0
2018-Jun-19 14:00N 40°51' E 024°42'0 0.0
2018-Jun-19 13:30N 40°51' E 024°42'0 0.0
2018-Jun-19 13:00N 40°51' E 024°42'0 0.0
2018-Jun-19 12:30N 40°51' E 024°42'0 0.0
2018-Jun-19 12:00N 40°51' E 024°42'0 0.0
2018-Jun-19 11:30N 40°51' E 024°42'0 0.0
2018-Jun-19 11:00N 40°51' E 024°42'0 0.0
2018-Jun-19 10:30N 40°51' E 024°42'0 0.0
2018-Jun-19 10:00N 40°51' E 024°42'0 0.0
2018-Jun-19 09:30N 40°51' E 024°42'0 0.0
2018-Jun-19 09:00N 40°51' E 024°42'0 0.0
2018-Jun-19 08:30N 40°51' E 024°42'0 0.0
2018-Jun-19 08:00N 40°51' E 024°42'0 0.0
2018-Jun-19 07:30N 40°51' E 024°42'0 0.0
2018-Jun-19 07:00N 40°51' E 024°42'0 0.0
2018-Jun-19 06:30N 40°51' E 024°42'0 0.0
2018-Jun-19 06:00N 40°51' E 024°42'0 0.0
2018-Jun-19 05:30N 40°51' E 024°42'0 0.0
2018-Jun-19 05:00N 40°51' E 024°42'0 0.0
2018-Jun-19 04:30N 40°51' E 024°42'0 0.0
2018-Jun-19 04:00N 40°51' E 024°42'0 0.0
2018-Jun-19 03:30N 40°51' E 024°42'0 0.0
2018-Jun-19 03:00N 40°51' E 024°42'0 0.0
2018-Jun-19 02:30N 40°51' E 024°42'0 0.0
2018-Jun-19 02:00N 40°51' E 024°42'0 0.0
2018-Jun-19 01:30N 40°51' E 024°42'0 0.0
2018-Jun-19 01:00N 40°51' E 024°42'0 0.0
2018-Jun-19 00:30N 40°51' E 024°42'0 0.0
2018-Jun-19 00:00N 40°51' E 024°42'0 0.0
2018-Jun-18 23:30N 40°51' E 024°42'0 0.0
2018-Jun-18 23:00N 40°51' E 024°42'0 0.0
2018-Jun-18 22:30N 40°51' E 024°42'0 0.0
2018-Jun-18 22:00N 40°51' E 024°42'0 0.0
2018-Jun-18 21:30N 40°51' E 024°42'0 0.0
2018-Jun-18 21:00N 40°51' E 024°42'0 0.0
2018-Jun-18 20:30N 40°51' E 024°42'0 0.0
2018-Jun-18 20:00N 40°51' E 024°42'1 1.7
2018-Jun-18 19:30N 40°52' E 024°41'4 7.8
2018-Jun-18 19:00N 40°48' E 024°43'4 8.5
2018-Jun-18 18:30N 40°46' E 024°48'4 7.5
2018-Jun-18 18:00N 40°42' E 024°50'11 6.9
2018-Jun-18 16:21N 40°31' E 024°48'3 6.8
2018-Jun-18 15:52N 40°28' E 024°49'2 6.6
2018-Jun-18 15:30N 40°25' E 024°49'4 7.0
2018-Jun-18 14:59N 40°22' E 024°49'4 7.6
2018-Jun-18 14:27N 40°18' E 024°49'10 8.3
2018-Jun-18 13:16N 40°08' E 024°48'152 3.9
2018-Jun-16 22:16N 37°36' E 024°60'2 8.2
2018-Jun-16 22:00N 37°35' E 025°02'4 8.2
2018-Jun-16 21:30N 37°32' E 025°06'4 8.0
2018-Jun-16 21:00N 37°30' E 025°10'4 7.9
2018-Jun-16 20:31N 37°27' E 025°13'5 0.4
2018-Jun-16 08:36N 37°28' E 025°19'0 1.3
2018-Jun-16 08:31N 37°28' E 025°20'0 0.0
2018-Jun-16 08:00N 37°28' E 025°20'0 0.0
2018-Jun-16 07:30N 37°28' E 025°20'0 0.0
2018-Jun-16 07:01N 37°28' E 025°20'0 0.0
2018-Jun-16 06:31N 37°28' E 025°20'0 0.0
2018-Jun-16 06:00N 37°28' E 025°20'0 0.0
2018-Jun-16 05:31N 37°28' E 025°20'0 0.0
2018-Jun-16 05:00N 37°28' E 025°20'0 0.0
2018-Jun-16 04:31N 37°28' E 025°20'0 0.0
2018-Jun-16 04:01N 37°28' E 025°20'0 0.0
2018-Jun-16 03:31N 37°28' E 025°20'0 0.0
2018-Jun-16 03:01N 37°28' E 025°20'0 0.0
2018-Jun-16 02:30N 37°28' E 025°20'0 0.0
2018-Jun-16 02:01N 37°28' E 025°20'0 0.0
2018-Jun-16 01:31N 37°28' E 025°20'0 0.0
2018-Jun-16 01:01N 37°28' E 025°20'0 0.0
2018-Jun-16 00:31N 37°28' E 025°20'0 0.0
2018-Jun-16 00:01N 37°28' E 025°20'0 0.0
2018-Jun-15 23:30N 37°28' E 025°20'0 0.0
2018-Jun-15 23:01N 37°28' E 025°20'0 0.0
2018-Jun-15 22:30N 37°28' E 025°20'0 0.0
2018-Jun-15 22:00N 37°28' E 025°20'0 0.0
2018-Jun-15 21:30N 37°28' E 025°20'0 0.0
2018-Jun-15 21:00N 37°28' E 025°20'0 0.0
2018-Jun-15 20:31N 37°28' E 025°20'0 0.0
2018-Jun-15 20:01N 37°28' E 025°20'0 0.0
2018-Jun-15 19:31N 37°28' E 025°20'0 0.0
2018-Jun-15 19:01N 37°28' E 025°20'0 0.0
2018-Jun-15 18:31N 37°28' E 025°20'0 0.0
2018-Jun-15 18:00N 37°28' E 025°20'0 0.0
2018-Jun-15 17:31N 37°28' E 025°20'0 0.0
2018-Jun-15 17:01N 37°28' E 025°20'0 0.0
2018-Jun-15 16:30N 37°28' E 025°20'0 0.0
2018-Jun-15 16:00N 37°28' E 025°20'0 0.0
2018-Jun-15 15:31N 37°28' E 025°20'0 0.0
2018-Jun-15 15:00N 37°28' E 025°20'0 0.0
2018-Jun-15 14:30N 37°28' E 025°20'0 0.0
2018-Jun-15 14:00N 37°28' E 025°20'0 0.0
2018-Jun-15 13:31N 37°28' E 025°20'0 0.0
2018-Jun-15 13:00N 37°28' E 025°20'0 0.0
2018-Jun-15 12:20N 37°28' E 025°20'0 0.0
2018-Jun-15 12:00N 37°28' E 025°20'0 0.0
2018-Jun-15 11:30N 37°28' E 025°20'0 0.0
2018-Jun-15 11:00N 37°28' E 025°20'0 0.0
2018-Jun-15 10:30N 37°28' E 025°20'0 0.0
2018-Jun-15 10:00N 37°28' E 025°20'0 0.0
2018-Jun-15 09:31N 37°28' E 025°20'0 0.0
2018-Jun-15 09:01N 37°28' E 025°20'0 0.0
2018-Jun-15 08:31N 37°28' E 025°20'0 0.0
2018-Jun-15 08:00N 37°28' E 025°20'0 0.0
2018-Jun-15 07:31N 37°28' E 025°20'0 0.0
2018-Jun-15 07:01N 37°28' E 025°20'0 0.0
2018-Jun-15 06:30N 37°28' E 025°20'0 0.0
2018-Jun-15 06:01N 37°28' E 025°20'0 0.0
2018-Jun-15 05:30N 37°28' E 025°20'0 0.0
2018-Jun-15 05:01N 37°28' E 025°20'0 0.0
2018-Jun-15 04:31N 37°28' E 025°20'0 0.0
2018-Jun-15 04:01N 37°28' E 025°20'0 0.0
2018-Jun-15 03:31N 37°28' E 025°20'0 0.0
2018-Jun-15 03:00N 37°28' E 025°20'0 0.0
2018-Jun-15 02:30N 37°28' E 025°20'0 0.0
2018-Jun-15 02:01N 37°28' E 025°20'0 0.0
2018-Jun-15 01:30N 37°28' E 025°20'0 0.0
2018-Jun-15 01:01N 37°28' E 025°20'0 0.0
2018-Jun-15 00:30N 37°28' E 025°20'0 0.0
2018-Jun-15 00:01N 37°28' E 025°20'0 0.0
2018-Jun-14 23:31N 37°28' E 025°20'0 0.0
2018-Jun-14 23:00N 37°28' E 025°20'0 0.0
2018-Jun-14 22:30N 37°28' E 025°20'0 0.0
2018-Jun-14 22:01N 37°28' E 025°20'0 0.0
2018-Jun-14 21:31N 37°28' E 025°20'0 0.0
2018-Jun-14 21:01N 37°28' E 025°20'0 0.0
2018-Jun-14 20:31N 37°28' E 025°20'0 0.0
2018-Jun-14 20:01N 37°28' E 025°20'0 0.0
2018-Jun-14 19:30N 37°28' E 025°20'0 0.0
2018-Jun-14 18:56N 37°28' E 025°20'0 0.0
2018-Jun-14 18:30N 37°28' E 025°20'0 0.0
2018-Jun-14 18:00N 37°28' E 025°20'0 0.0
2018-Jun-14 17:31N 37°28' E 025°20'0 0.0
2018-Jun-14 17:00N 37°28' E 025°20'0 0.0
2018-Jun-14 16:31N 37°28' E 025°20'0 0.0
2018-Jun-14 16:00N 37°28' E 025°20'0 0.0
2018-Jun-14 15:31N 37°28' E 025°20'0 0.0
2018-Jun-14 15:01N 37°28' E 025°20'0 0.0
2018-Jun-14 14:31N 37°28' E 025°20'0 0.5
2018-Jun-14 14:01N 37°28' E 025°19'1 2.1
2018-Jun-14 13:31N 37°26' E 025°19'0 0.0
2018-Jun-14 12:57N 37°26' E 025°19'0 0.0
2018-Jun-14 12:31N 37°26' E 025°19'0 0.0
2018-Jun-14 12:01N 37°26' E 025°19'0 0.0
2018-Jun-14 11:30N 37°26' E 025°19'0 0.0
2018-Jun-14 11:00N 37°26' E 025°19'0 0.0
2018-Jun-14 10:30N 37°26' E 025°19'0 0.1
2018-Jun-14 10:00N 37°26' E 025°19'0 0.0
2018-Jun-14 09:31N 37°26' E 025°19'0 0.0
2018-Jun-14 09:01N 37°26' E 025°19'0 0.0
2018-Jun-14 08:30N 37°26' E 025°19'0 0.1
2018-Jun-14 08:00N 37°26' E 025°19'0 0.0
2018-Jun-14 07:30N 37°26' E 025°19'0 0.0
2018-Jun-14 07:01N 37°26' E 025°19'0 0.1
2018-Jun-14 06:31N 37°26' E 025°19'1 2.1
2018-Jun-14 06:01N 37°27' E 025°18'4 7.2
2018-Jun-14 05:31N 37°29' E 025°14'4 7.5
2018-Jun-14 05:00N 37°30' E 025°10'4 7.6
2018-Jun-14 04:31N 37°32' E 025°06'78 2.3
2018-Jun-12 18:46N 38°22' E 023°49'  

Dump ship's entire track history